createdAt,value
2022-10-12T00:00:35.794Z,67.77
2022-10-12T00:03:03.441Z,67.93
2022-10-12T00:05:31.129Z,68.06
2022-10-12T00:07:58.714Z,68.06
2022-10-12T00:10:27.791Z,67.92
2022-10-12T00:12:55.434Z,67.94
2022-10-12T00:15:23.025Z,67.99
2022-10-12T00:17:50.650Z,67.90
2022-10-12T00:20:18.425Z,67.93
2022-10-12T00:22:46.100Z,67.92
2022-10-12T00:25:13.702Z,67.81
2022-10-12T00:27:42.703Z,67.98
2022-10-12T00:30:11.806Z,67.96
2022-10-12T00:32:39.478Z,68.02
2022-10-12T00:35:07.718Z,67.85
2022-10-12T00:37:35.525Z,67.93
2022-10-12T00:40:03.421Z,67.81
2022-10-12T00:42:31.050Z,67.96
2022-10-12T00:45:00.085Z,67.88
2022-10-12T00:47:29.393Z,67.86
2022-10-12T00:49:59.257Z,67.60
2022-10-12T00:52:30.422Z,67.76
2022-10-12T00:54:58.429Z,67.71
2022-10-12T00:57:26.118Z,67.59
2022-10-12T00:59:55.561Z,67.68
2022-10-12T01:02:24.646Z,67.63
2022-10-12T01:04:52.270Z,67.48
2022-10-12T01:07:20.055Z,67.61
2022-10-12T01:09:47.661Z,67.58
2022-10-12T01:12:15.254Z,67.62
2022-10-12T01:14:42.904Z,67.70
2022-10-12T01:17:16.528Z,67.53
2022-10-12T01:20:17.551Z,67.44
2022-10-12T01:22:46.756Z,67.32
2022-10-12T01:25:20.986Z,67.13
2022-10-12T01:27:48.661Z,67.41
2022-10-12T01:30:20.331Z,67.38
2022-10-12T01:33:18.301Z,67.39
2022-10-12T01:35:51.120Z,67.64
2022-10-12T01:38:26.099Z,67.56
2022-10-12T01:40:58.301Z,67.32
2022-10-12T01:43:34.045Z,67.18
2022-10-12T01:46:08.194Z,67.33
2022-10-12T01:48:35.818Z,67.22
2022-10-12T01:51:03.525Z,67.16
2022-10-12T01:53:34.351Z,67.00
2022-10-12T01:56:04.817Z,67.23
2022-10-12T01:58:36.204Z,67.11
2022-10-12T02:01:08.780Z,67.10
2022-10-12T02:03:37.891Z,67.33
2022-10-12T02:06:07.680Z,67.23
2022-10-12T02:08:36.853Z,67.10
2022-10-12T02:11:06.066Z,67.04
2022-10-12T02:13:35.405Z,67.01
2022-10-12T02:16:03.812Z,66.99
2022-10-12T02:18:32.775Z,67.05
2022-10-12T02:21:00.411Z,66.78
2022-10-12T02:23:28.067Z,66.86
2022-10-12T02:25:55.715Z,66.74
2022-10-12T02:28:24.690Z,66.81
2022-10-12T02:30:55.338Z,66.63
2022-10-12T02:33:24.918Z,66.67
2022-10-12T02:35:57.245Z,66.52
2022-10-12T02:38:27.707Z,66.68
2022-10-12T02:40:56.704Z,66.77
2022-10-12T02:43:25.351Z,66.72
2022-10-12T02:45:53.030Z,66.60
2022-10-12T02:48:23.164Z,66.56
2022-10-12T02:50:51.338Z,66.07
2022-10-12T02:53:20.314Z,66.39
2022-10-12T02:55:49.273Z,66.47
2022-10-12T02:58:16.921Z,66.25
2022-10-12T03:00:44.553Z,66.33
2022-10-12T03:03:12.260Z,66.35
2022-10-12T03:05:40.423Z,66.30
2022-10-12T03:08:08.227Z,66.23
2022-10-12T03:10:37.234Z,66.16
2022-10-12T03:13:04.821Z,65.94
2022-10-12T03:15:32.421Z,66.21
2022-10-12T03:18:00.037Z,66.09
2022-10-12T03:20:27.668Z,66.08
2022-10-12T03:22:55.332Z,66.01
2022-10-12T03:25:22.994Z,65.95
2022-10-12T03:27:52.021Z,65.93
2022-10-12T03:30:19.656Z,65.85
2022-10-12T03:32:47.357Z,65.94
2022-10-12T03:35:15.153Z,65.97
2022-10-12T03:37:42.792Z,65.70
2022-10-12T03:40:11.635Z,65.78
2022-10-12T03:42:39.325Z,65.74
2022-10-12T03:45:09.847Z,65.82
2022-10-12T03:47:38.106Z,65.68
2022-10-12T03:50:06.707Z,65.77
2022-10-12T03:52:34.310Z,65.62
2022-10-12T03:55:01.931Z,65.41
2022-10-12T03:57:29.518Z,65.61
2022-10-12T03:59:57.193Z,65.50
2022-10-12T04:02:26.159Z,65.52
2022-10-12T04:04:53.825Z,65.55
2022-10-12T04:07:21.419Z,65.34
2022-10-12T04:09:49.119Z,65.35
2022-10-12T04:12:16.769Z,65.04
2022-10-12T04:14:44.364Z,65.30
2022-10-12T04:17:12.541Z,65.37
2022-10-12T04:19:41.541Z,65.49
2022-10-12T04:22:09.161Z,64.60
2022-10-12T04:24:36.759Z,64.61
2022-10-12T04:27:04.628Z,64.34
2022-10-12T04:29:32.347Z,64.90
2022-10-12T04:32:00.036Z,65.33
2022-10-12T04:34:27.862Z,64.32
2022-10-12T04:36:56.877Z,65.18
2022-10-12T04:39:24.502Z,65.21
2022-10-12T04:41:52.178Z,65.32
2022-10-12T04:44:19.797Z,65.36
2022-10-12T04:46:47.474Z,65.34
2022-10-12T04:49:16.145Z,65.36
2022-10-12T04:51:43.841Z,65.35
2022-10-12T04:54:12.979Z,65.28
2022-10-12T04:56:44.196Z,65.36
2022-10-12T04:59:14.743Z,65.27
2022-10-12T05:01:42.451Z,65.14
2022-10-12T05:04:10.281Z,65.22
2022-10-12T05:06:37.922Z,65.21
2022-10-12T05:09:05.567Z,65.24
2022-10-12T05:11:34.688Z,65.30
2022-10-12T05:14:02.373Z,65.17
2022-10-12T05:16:30.037Z,65.31
2022-10-12T05:18:57.728Z,65.32
2022-10-12T05:21:25.382Z,65.20
2022-10-12T05:23:53.181Z,65.26
2022-10-12T05:26:20.891Z,65.05
2022-10-12T05:28:50.013Z,65.32
2022-10-12T05:31:17.721Z,65.20
2022-10-12T05:33:45.491Z,64.90
2022-10-12T05:36:13.167Z,65.17
2022-10-12T05:38:40.860Z,65.00
2022-10-12T05:41:08.603Z,65.10
2022-10-12T05:43:36.262Z,64.91
2022-10-12T05:46:05.677Z,65.03
2022-10-12T05:48:39.859Z,65.04
2022-10-12T05:51:07.674Z,64.97
2022-10-12T05:53:35.362Z,65.17
2022-10-12T05:56:03.131Z,64.90
2022-10-12T05:58:32.043Z,64.44
2022-10-12T06:01:07.118Z,60.19
2022-10-12T06:03:35.262Z,61.87
2022-10-12T06:06:03.357Z,62.69
2022-10-12T06:08:31.085Z,63.90
2022-10-12T06:10:58.711Z,63.88
2022-10-12T06:13:26.555Z,64.13
2022-10-12T06:15:54.290Z,64.16
2022-10-12T06:18:23.326Z,63.87
2022-10-12T06:21:08.673Z,63.97
2022-10-12T06:23:39.754Z,63.98
2022-10-12T06:26:07.498Z,64.01
2022-10-12T06:28:35.243Z,63.97
2022-10-12T06:31:02.964Z,64.02
2022-10-12T06:33:31.981Z,64.15
2022-10-12T06:35:59.594Z,64.10
2022-10-12T06:38:27.200Z,64.29
2022-10-12T06:40:54.824Z,64.18
2022-10-12T06:43:24.165Z,64.25
2022-10-12T06:45:51.846Z,64.37
2022-10-12T06:48:19.469Z,64.36
2022-10-12T06:50:48.854Z,64.62
2022-10-12T06:53:16.462Z,64.49
2022-10-12T06:55:44.044Z,64.52
2022-10-12T06:58:11.650Z,64.57
2022-10-12T07:00:39.366Z,64.70
2022-10-12T07:03:07.070Z,64.78
2022-10-12T07:05:34.748Z,64.49
2022-10-12T07:08:03.773Z,64.68
2022-10-12T07:10:31.397Z,64.72
2022-10-12T07:12:59.035Z,64.87
2022-10-12T07:15:26.825Z,64.82
2022-10-12T07:17:54.484Z,64.85
2022-10-12T07:20:22.201Z,64.73
2022-10-12T07:22:49.830Z,64.60
2022-10-12T07:25:18.977Z,64.78
2022-10-12T07:27:48.309Z,64.80
2022-10-12T07:30:16.257Z,64.85
2022-10-12T07:32:44.866Z,64.74
2022-10-12T07:35:12.500Z,64.70
2022-10-12T07:37:40.487Z,64.71
2022-10-12T07:40:09.661Z,64.55
2022-10-12T07:42:53.734Z,64.62
2022-10-12T07:45:46.525Z,64.55
2022-10-12T07:48:14.274Z,64.54
2022-10-12T07:50:41.946Z,64.57
2022-10-12T07:53:09.662Z,64.48
2022-10-12T07:55:37.327Z,64.59
2022-10-12T07:58:06.367Z,64.47
2022-10-12T08:00:34.138Z,64.49
2022-10-12T08:03:01.815Z,64.55
2022-10-12T08:05:29.502Z,64.45
2022-10-12T08:07:57.262Z,64.55
2022-10-12T08:10:24.878Z,64.44
2022-10-12T08:12:52.528Z,64.46
2022-10-12T08:15:21.614Z,64.39
2022-10-12T08:17:49.282Z,64.36
2022-10-12T08:20:17.118Z,64.41
2022-10-12T08:22:44.776Z,64.45
2022-10-12T08:25:12.459Z,64.37
2022-10-12T08:27:40.427Z,64.35
2022-10-12T08:30:09.341Z,64.39
2022-10-12T08:32:38.411Z,64.20
2022-10-12T08:35:06.786Z,64.34
2022-10-12T08:37:34.506Z,64.13
2022-10-12T08:40:03.473Z,64.20
2022-10-12T08:42:39.918Z,64.26
2022-10-12T08:45:31.372Z,64.25
2022-10-12T08:48:01.568Z,64.17
2022-10-12T08:50:32.093Z,64.13
2022-10-12T08:53:02.202Z,64.26
2022-10-12T08:55:35.769Z,64.19
2022-10-12T08:58:03.646Z,64.26
2022-10-12T09:00:31.682Z,64.45
2022-10-12T09:03:08.341Z,64.26
2022-10-12T09:05:38.489Z,64.11
2022-10-12T09:08:08.153Z,64.09
2022-10-12T09:10:44.250Z,64.04
2022-10-12T09:13:17.471Z,64.14
2022-10-12T09:15:47.630Z,64.04
2022-10-12T09:18:18.046Z,64.12
2022-10-12T09:20:47.749Z,64.12
2022-10-12T09:23:23.661Z,63.98
2022-10-12T09:25:51.349Z,63.95
2022-10-12T09:28:22.217Z,64.10
2022-10-12T09:31:03.529Z,63.99
2022-10-12T09:33:33.663Z,64.02
2022-10-12T09:36:01.378Z,64.03
2022-10-12T09:38:29.024Z,63.97
2022-10-12T09:40:56.647Z,64.06
2022-10-12T09:43:24.309Z,64.08
2022-10-12T09:45:51.942Z,64.10
2022-10-12T09:48:20.565Z,64.11
2022-10-12T09:50:54.714Z,64.29
2022-10-12T09:53:27.841Z,64.18
2022-10-12T09:55:57.941Z,63.98
2022-10-12T09:58:25.605Z,64.11
2022-10-12T10:01:19.262Z,64.00
2022-10-12T10:03:47.958Z,64.24
2022-10-12T10:06:16.993Z,64.08
2022-10-12T10:08:45.514Z,64.18
2022-10-12T10:11:17.515Z,64.00
2022-10-12T10:13:48.193Z,63.92
2022-10-12T10:16:16.571Z,64.07
2022-10-12T10:18:44.847Z,64.07
2022-10-12T10:21:14.330Z,63.95
2022-10-12T10:23:44.948Z,63.95
2022-10-12T10:26:15.001Z,63.88
2022-10-12T10:28:43.190Z,63.85
2022-10-12T10:31:21.511Z,63.95
2022-10-12T10:34:04.943Z,64.03
2022-10-12T10:36:32.651Z,63.83
2022-10-12T10:39:04.762Z,63.87
2022-10-12T10:41:33.144Z,64.10
2022-10-12T10:44:00.838Z,63.93
2022-10-12T10:46:30.578Z,63.81
2022-10-12T10:49:01.618Z,64.04
2022-10-12T10:51:42.973Z,64.26
2022-10-12T10:54:26.893Z,64.36
2022-10-12T10:56:56.444Z,64.00
2022-10-12T10:59:29.962Z,64.09
2022-10-12T11:01:59.083Z,64.10
2022-10-12T11:04:28.017Z,64.26
2022-10-12T11:06:57.094Z,64.42
2022-10-12T11:09:29.896Z,64.62
2022-10-12T11:11:58.500Z,64.63
2022-10-12T11:14:34.736Z,64.87
2022-10-12T11:17:04.155Z,64.86
2022-10-12T11:19:36.619Z,64.96
2022-10-12T11:22:05.153Z,65.17
2022-10-12T11:24:36.468Z,65.17
2022-10-12T11:27:05.211Z,65.37
2022-10-12T11:29:32.914Z,65.46
2022-10-12T11:32:04.213Z,65.66
2022-10-12T11:34:33.742Z,65.79
2022-10-12T11:37:19.118Z,65.90
2022-10-12T11:39:56.065Z,66.11
2022-10-12T11:42:29.249Z,66.16
2022-10-12T11:44:56.918Z,66.44
2022-10-12T11:47:29.178Z,66.49
2022-10-12T11:49:58.434Z,66.55
2022-10-12T11:52:28.971Z,66.56
2022-10-12T11:55:00.625Z,66.79
2022-10-12T11:57:29.757Z,66.91
2022-10-12T11:59:58.145Z,66.82
2022-10-12T12:02:27.186Z,66.90
2022-10-12T12:04:55.423Z,66.87
2022-10-12T12:07:43.358Z,67.00
2022-10-12T12:10:51.118Z,66.91
2022-10-12T12:13:22.946Z,66.71
2022-10-12T12:16:30.701Z,66.83
2022-10-12T12:19:20.782Z,66.86
2022-10-12T12:22:26.305Z,66.87
2022-10-12T12:25:12.757Z,66.95
2022-10-12T12:27:42.958Z,66.97
2022-10-12T12:30:27.284Z,66.92
2022-10-12T12:32:55.702Z,66.92
2022-10-12T12:35:26.417Z,66.93
2022-10-12T12:38:08.285Z,66.91
2022-10-12T12:40:35.967Z,67.10
2022-10-12T12:43:39.788Z,66.95
2022-10-12T12:46:08.158Z,67.07
2022-10-12T12:49:04.431Z,66.96
2022-10-12T12:51:38.265Z,66.74
2022-10-12T12:54:07.524Z,66.80
2022-10-12T12:56:39.306Z,66.99
2022-10-12T12:59:22.757Z,67.00
2022-10-12T13:02:01.090Z,67.01
2022-10-12T13:04:54.422Z,67.01
2022-10-12T13:07:51.879Z,67.33
2022-10-12T13:10:27.862Z,67.27
2022-10-12T13:13:10.229Z,67.51
2022-10-12T13:15:44.231Z,67.41
2022-10-12T13:18:45.873Z,67.46
2022-10-12T13:21:16.826Z,67.63
2022-10-12T13:23:45.283Z,67.54
2022-10-12T13:26:15.407Z,67.73
2022-10-12T13:28:44.034Z,67.61
2022-10-12T13:31:15.624Z,67.87
2022-10-12T13:33:46.526Z,67.76
2022-10-12T13:36:19.621Z,67.85
2022-10-12T13:38:47.259Z,67.81
2022-10-12T13:41:15.633Z,67.94
2022-10-12T13:43:46.862Z,67.89
2022-10-12T13:46:37.025Z,67.56
2022-10-12T13:49:05.126Z,67.79
2022-10-12T13:51:32.763Z,67.40
2022-10-12T13:54:00.431Z,67.35
2022-10-12T13:56:29.170Z,67.06
2022-10-12T13:58:58.346Z,66.98
2022-10-12T14:01:27.454Z,67.17
2022-10-12T14:04:03.085Z,67.16
2022-10-12T14:06:32.177Z,67.00
2022-10-12T14:09:00.717Z,66.94
2022-10-12T14:11:28.388Z,67.06
2022-10-12T14:13:56.640Z,67.11
2022-10-12T14:16:24.309Z,67.07
2022-10-12T14:18:53.297Z,67.03
2022-10-12T14:21:23.601Z,67.14
2022-10-12T14:23:52.545Z,67.09
2022-10-12T14:26:30.753Z,66.95
2022-10-12T14:28:58.870Z,66.98
2022-10-12T14:31:49.559Z,66.95
2022-10-12T14:34:28.664Z,66.91
2022-10-12T14:37:02.742Z,66.82
2022-10-12T14:39:30.424Z,66.77
2022-10-12T14:41:58.271Z,66.64
2022-10-12T14:44:26.782Z,62.04
2022-10-12T14:46:55.858Z,62.21
2022-10-12T14:49:25.719Z,64.38
2022-10-12T14:51:54.233Z,65.00
2022-10-12T14:54:22.006Z,65.00
2022-10-12T14:56:49.804Z,64.85
2022-10-12T14:59:17.440Z,64.98
2022-10-12T15:01:47.596Z,65.11
2022-10-12T15:04:17.917Z,65.03
2022-10-12T15:06:50.675Z,65.12
2022-10-12T15:09:18.831Z,65.14
2022-10-12T15:11:46.541Z,65.07
2022-10-12T15:14:14.445Z,64.98
2022-10-12T15:16:42.131Z,65.15
2022-10-12T15:19:09.791Z,65.29
2022-10-12T15:21:37.507Z,65.32
2022-10-12T15:24:12.263Z,65.53
2022-10-12T15:26:42.404Z,65.69
2022-10-12T15:29:10.281Z,65.85
2022-10-12T15:31:38.017Z,65.55
2022-10-12T15:34:07.641Z,65.80
2022-10-12T15:36:35.374Z,65.59
2022-10-12T15:39:03.087Z,65.75
2022-10-12T15:41:32.156Z,65.60
2022-10-12T15:43:59.854Z,65.62
2022-10-12T15:46:27.869Z,65.70
2022-10-12T15:48:55.576Z,65.97
2022-10-12T15:51:23.906Z,65.78
2022-10-12T15:53:52.773Z,65.97
2022-10-12T15:56:20.489Z,65.97
2022-10-12T15:58:49.599Z,66.08
2022-10-12T16:01:18.595Z,66.29
2022-10-12T16:03:46.457Z,65.97
2022-10-12T16:06:14.166Z,65.98
2022-10-12T16:08:41.931Z,66.18
2022-10-12T16:11:10.735Z,66.02
2022-10-12T16:13:45.419Z,66.11
2022-10-12T16:16:16.237Z,66.14
2022-10-12T16:19:02.971Z,65.83
2022-10-12T16:21:32.705Z,66.06
2022-10-12T16:24:00.359Z,66.20
2022-10-12T16:26:28.020Z,66.18
2022-10-12T16:28:55.732Z,66.12
2022-10-12T16:31:24.897Z,65.87
2022-10-12T16:33:52.590Z,65.68
2022-10-12T16:36:20.231Z,65.21
2022-10-12T16:38:47.930Z,65.08
2022-10-12T16:41:16.431Z,64.80
2022-10-12T16:43:44.228Z,64.75
2022-10-12T16:46:11.943Z,64.37
2022-10-12T16:48:41.038Z,64.18
2022-10-12T16:51:09.241Z,63.86
2022-10-12T16:53:37.001Z,63.79
2022-10-12T16:56:04.822Z,63.43
2022-10-12T16:58:33.008Z,63.05
2022-10-12T17:01:09.013Z,63.06
2022-10-12T17:03:36.754Z,62.62
2022-10-12T17:06:06.053Z,62.72
2022-10-12T17:08:34.735Z,62.07
2022-10-12T17:11:06.279Z,61.54
2022-10-12T17:13:36.357Z,62.27
2022-10-12T17:16:25.417Z,62.01
2022-10-12T17:18:58.196Z,61.82
2022-10-12T17:21:28.603Z,61.65
2022-10-12T17:23:57.082Z,61.59
2022-10-12T17:26:24.806Z,61.47
2022-10-12T17:28:52.554Z,61.29
2022-10-12T17:31:20.328Z,61.27
2022-10-12T17:33:49.086Z,61.53
2022-10-12T17:36:16.923Z,60.60
2022-10-12T17:38:46.074Z,60.61
2022-10-12T17:41:13.795Z,60.37
2022-10-12T17:43:41.558Z,60.29
2022-10-12T17:46:09.313Z,60.63
2022-10-12T17:48:37.074Z,60.98
2022-10-12T17:51:06.046Z,60.17
2022-10-12T17:53:33.749Z,60.36
2022-10-12T17:56:03.294Z,61.09
2022-10-12T17:58:31.234Z,60.79
2022-10-12T18:00:59.066Z,60.67
2022-10-12T18:03:28.180Z,61.01
2022-10-12T18:05:55.846Z,60.76
2022-10-12T18:08:23.510Z,61.23
2022-10-12T18:10:51.245Z,60.82
2022-10-12T18:13:20.325Z,61.32
2022-10-12T18:15:48.076Z,60.68
2022-10-12T18:18:15.849Z,60.70
2022-10-12T18:20:43.527Z,60.82
2022-10-12T18:23:11.184Z,60.42
2022-10-12T18:25:38.921Z,61.56
2022-10-12T18:28:06.662Z,60.63
2022-10-12T18:30:35.766Z,60.53
2022-10-12T18:33:03.426Z,60.80
2022-10-12T18:35:31.322Z,60.49
2022-10-12T18:37:59.285Z,60.38
2022-10-12T18:40:26.992Z,60.13
2022-10-12T18:42:54.718Z,60.22
2022-10-12T18:45:22.459Z,60.22
2022-10-12T18:47:51.607Z,60.78
2022-10-12T18:50:19.325Z,60.73
2022-10-12T18:52:46.955Z,61.36
2022-10-12T18:55:14.630Z,60.61
2022-10-12T18:57:42.349Z,60.63
2022-10-12T19:00:10.934Z,60.75
2022-10-12T19:02:38.583Z,60.74
2022-10-12T19:05:08.326Z,60.21
2022-10-12T19:07:36.413Z,59.95
2022-10-12T19:10:07.042Z,59.50
2022-10-12T19:12:34.890Z,58.77
2022-10-12T19:15:02.983Z,59.55
2022-10-12T19:17:31.939Z,59.70
2022-10-12T19:19:59.626Z,59.94
2022-10-12T19:22:28.675Z,59.92
2022-10-12T19:24:56.296Z,60.56
2022-10-12T19:27:23.933Z,60.72
2022-10-12T19:29:52.001Z,60.64
2022-10-12T19:32:20.112Z,60.95
2022-10-12T19:34:48.228Z,61.00
2022-10-12T19:37:15.869Z,61.38
2022-10-12T19:39:47.163Z,61.28
2022-10-12T19:42:14.928Z,60.92
2022-10-12T19:44:42.792Z,61.50
2022-10-12T19:47:10.487Z,61.98
2022-10-12T19:49:41.932Z,61.62
2022-10-12T19:52:12.209Z,62.14
2022-10-12T19:54:39.882Z,62.11
2022-10-12T19:57:08.917Z,61.87
2022-10-12T19:59:36.597Z,62.15
2022-10-12T20:02:04.247Z,62.13
2022-10-12T20:04:31.873Z,62.40
2022-10-12T20:06:59.825Z,62.47
2022-10-12T20:09:27.487Z,62.38
2022-10-12T20:11:55.089Z,62.62
2022-10-12T20:14:25.544Z,62.54
2022-10-12T20:16:54.442Z,62.40
2022-10-12T20:19:22.096Z,62.21
2022-10-12T20:21:49.737Z,61.63
2022-10-12T20:24:17.450Z,61.76
2022-10-12T20:26:45.106Z,61.65
2022-10-12T20:29:12.831Z,61.55
2022-10-12T20:31:41.847Z,61.39
2022-10-12T20:34:09.486Z,61.47
2022-10-12T20:36:37.176Z,61.65
2022-10-12T20:39:04.906Z,61.42
2022-10-12T20:41:32.612Z,61.24
2022-10-12T20:44:00.968Z,61.22
2022-10-12T20:46:29.077Z,61.19
2022-10-12T20:48:59.175Z,61.30
2022-10-12T20:51:28.698Z,61.18
2022-10-12T20:53:58.908Z,61.18
2022-10-12T20:56:26.533Z,61.12
2022-10-12T20:58:54.301Z,61.12
2022-10-12T21:01:22.076Z,61.04
2022-10-12T21:03:49.946Z,61.04
2022-10-12T21:06:20.476Z,60.98
2022-10-12T21:08:50.050Z,61.06
2022-10-12T21:11:17.904Z,60.82
2022-10-12T21:13:46.028Z,60.98
2022-10-12T21:16:14.142Z,61.02
2022-10-12T21:18:41.974Z,60.89
2022-10-12T21:21:12.690Z,60.87
2022-10-12T21:23:42.162Z,60.88
2022-10-12T21:26:10.274Z,60.90
2022-10-12T21:28:37.974Z,60.84
2022-10-12T21:31:05.794Z,60.84
2022-10-12T21:33:34.081Z,60.85
2022-10-12T21:36:09.126Z,60.90
2022-10-12T21:38:36.819Z,60.73
2022-10-12T21:41:06.226Z,60.89
2022-10-12T21:43:33.847Z,60.79
2022-10-12T21:46:05.180Z,60.78
2022-10-12T21:48:32.931Z,60.79
2022-10-12T21:51:00.875Z,60.71
2022-10-12T21:53:28.699Z,60.91
2022-10-12T21:55:56.357Z,61.01
2022-10-12T21:58:25.558Z,60.81
2022-10-12T22:00:53.272Z,60.88
2022-10-12T22:03:20.973Z,60.84
2022-10-12T22:05:48.594Z,60.84
2022-10-12T22:08:16.216Z,60.93
2022-10-12T22:10:43.817Z,61.06
2022-10-12T22:13:11.466Z,61.07
2022-10-12T22:15:40.488Z,61.01
2022-10-12T22:18:08.142Z,60.85
2022-10-12T22:20:36.970Z,60.90
2022-10-12T22:23:04.618Z,60.99
2022-10-12T22:25:32.291Z,61.04
2022-10-12T22:27:59.933Z,60.91
2022-10-12T22:30:27.642Z,61.05
2022-10-12T22:32:56.699Z,61.01
2022-10-12T22:35:24.906Z,61.19
2022-10-12T22:37:52.501Z,61.30
2022-10-12T22:40:20.257Z,60.90
2022-10-12T22:42:47.897Z,61.06
2022-10-12T22:45:16.178Z,61.25
2022-10-12T22:47:43.797Z,61.33
2022-10-12T22:50:12.886Z,61.29
2022-10-12T22:52:40.549Z,61.49
2022-10-12T22:55:09.194Z,61.56
2022-10-12T22:57:36.880Z,61.60
2022-10-12T23:00:05.252Z,61.81
2022-10-12T23:02:32.899Z,61.90
2022-10-12T23:05:00.562Z,61.98
2022-10-12T23:07:29.568Z,62.04
2022-10-12T23:09:57.190Z,62.10
2022-10-12T23:12:24.842Z,62.06
2022-10-12T23:14:52.469Z,62.00
2022-10-12T23:17:20.158Z,62.14
2022-10-12T23:19:47.805Z,62.27
2022-10-12T23:22:15.610Z,62.54
2022-10-12T23:24:44.795Z,62.55
2022-10-12T23:27:12.421Z,62.72
2022-10-12T23:29:40.111Z,62.62
2022-10-12T23:32:07.737Z,62.70
2022-10-12T23:34:35.354Z,62.93
2022-10-12T23:37:03.214Z,62.70
2022-10-12T23:39:30.934Z,62.84
2022-10-12T23:41:59.943Z,62.96
2022-10-12T23:44:27.578Z,62.77
2022-10-12T23:46:55.262Z,62.79
2022-10-12T23:49:23.035Z,63.01
2022-10-12T23:51:50.633Z,63.02
2022-10-12T23:54:18.286Z,62.94
2022-10-12T23:56:45.913Z,63.03
2022-10-12T23:59:15.191Z,62.89
